sensor_id;sensor_type;location;lat;lon;timestamp;pressure;altitude;pressure_sealevel;temperature;humidity
36260;BME280;22296;50.824;5.644;2023-05-29T00:00:52;101168.81;;;22.22;46.31
36260;BME280;22296;50.824;5.644;2023-05-29T00:03:19;101160.75;;;22.20;46.49
36260;BME280;22296;50.824;5.644;2023-05-29T00:05:46;101159.50;;;22.18;46.60
36260;BME280;22296;50.824;5.644;2023-05-29T00:08:12;101161.47;;;22.17;46.67
36260;BME280;22296;50.824;5.644;2023-05-29T00:10:39;101155.84;;;22.17;46.43
36260;BME280;22296;50.824;5.644;2023-05-29T00:13:06;101164.28;;;22.17;46.84
36260;BME280;22296;50.824;5.644;2023-05-29T00:15:34;101159.00;;;22.15;46.75
36260;BME280;22296;50.824;5.644;2023-05-29T00:18:01;101164.28;;;22.17;46.98
36260;BME280;22296;50.824;5.644;2023-05-29T00:20:28;101171.91;;;22.17;46.96
36260;BME280;22296;50.824;5.644;2023-05-29T00:22:55;101173.53;;;22.18;47.03
36260;BME280;22296;50.824;5.644;2023-05-29T00:25:22;101166.28;;;22.17;46.95
36260;BME280;22296;50.824;5.644;2023-05-29T00:27:49;101167.00;;;22.13;47.11
36260;BME280;22296;50.824;5.644;2023-05-29T00:30:16;101177.50;;;22.17;47.23
36260;BME280;22296;50.824;5.644;2023-05-29T00:32:43;101182.69;;;22.14;46.97
36260;BME280;22296;50.824;5.644;2023-05-29T00:35:10;101183.84;;;22.13;47.13
36260;BME280;22296;50.824;5.644;2023-05-29T00:37:37;101187.84;;;22.12;47.09
36260;BME280;22296;50.824;5.644;2023-05-29T00:40:04;101192.66;;;22.12;46.93
36260;BME280;22296;50.824;5.644;2023-05-29T00:42:31;101191.81;;;22.11;46.97
36260;BME280;22296;50.824;5.644;2023-05-29T00:44:58;101184.56;;;22.10;47.25
36260;BME280;22296;50.824;5.644;2023-05-29T00:47:25;101189.75;;;22.08;47.22
36260;BME280;22296;50.824;5.644;2023-05-29T00:49:53;101193.72;;;22.07;47.45
36260;BME280;22296;50.824;5.644;2023-05-29T00:52:21;101192.56;;;22.08;47.25
36260;BME280;22296;50.824;5.644;2023-05-29T00:54:48;101191.72;;;22.08;47.44
36260;BME280;22296;50.824;5.644;2023-05-29T00:57:16;101192.56;;;22.08;47.46
36260;BME280;22296;50.824;5.644;2023-05-29T00:59:45;101196.91;;;22.06;47.18
36260;BME280;22296;50.824;5.644;2023-05-29T01:02:14;101201.69;;;22.05;47.68
36260;BME280;22296;50.824;5.644;2023-05-29T01:04:44;101195.63;;;22.03;47.36
36260;BME280;22296;50.824;5.644;2023-05-29T01:07:11;101197.25;;;22.04;47.56
36260;BME280;22296;50.824;5.644;2023-05-29T01:09:39;101205.22;;;22.02;47.42
36260;BME280;22296;50.824;5.644;2023-05-29T01:20:31;101208.28;;;21.97;47.48
36260;BME280;22296;50.824;5.644;2023-05-29T01:28:57;101209.00;;;21.94;46.99
36260;BME280;22296;50.824;5.644;2023-05-29T01:31:28;101212.28;;;21.96;46.93
36260;BME280;22296;50.824;5.644;2023-05-29T01:33:58;101213.00;;;21.93;46.92
36260;BME280;22296;50.824;5.644;2023-05-29T01:36:26;101209.84;;;21.95;47.14
36260;BME280;22296;50.824;5.644;2023-05-29T01:38:54;101216.16;;;21.92;47.53
36260;BME280;22296;50.824;5.644;2023-05-29T01:41:23;101225.03;;;21.94;47.55
36260;BME280;22296;50.824;5.644;2023-05-29T01:43:50;101228.22;;;21.92;47.13
36260;BME280;22296;50.824;5.644;2023-05-29T01:46:18;101232.19;;;21.91;47.91
36260;BME280;22296;50.824;5.644;2023-05-29T01:48:46;101235.34;;;21.90;47.77
36260;BME280;22296;50.824;5.644;2023-05-29T01:51:13;101230.09;;;21.88;47.79
36260;BME280;22296;50.824;5.644;2023-05-29T01:53:41;101236.03;;;21.87;47.40
36260;BME280;22296;50.824;5.644;2023-05-29T01:56:09;101226.47;;;21.88;47.43
36260;BME280;22296;50.824;5.644;2023-05-29T01:58:38;101233.72;;;21.89;47.32
36260;BME280;22296;50.824;5.644;2023-05-29T02:01:06;101228.78;;;21.86;47.31
36260;BME280;22296;50.824;5.644;2023-05-29T02:03:34;101232.78;;;21.85;47.37
36260;BME280;22296;50.824;5.644;2023-05-29T02:06:02;101237.94;;;21.83;47.39
36260;BME280;22296;50.824;5.644;2023-05-29T02:08:29;101244.81;;;21.85;47.50
36260;BME280;22296;50.824;5.644;2023-05-29T02:10:56;101237.56;;;21.84;47.14
36260;BME280;22296;50.824;5.644;2023-05-29T02:13:23;101234.31;;;21.82;47.13
36260;BME280;22296;50.824;5.644;2023-05-29T02:15:50;101242.28;;;21.80;47.36
36260;BME280;22296;50.824;5.644;2023-05-29T02:18:16;101237.81;;;21.79;47.43
36260;BME280;22296;50.824;5.644;2023-05-29T02:20:47;101237.47;;;21.81;47.20
36260;BME280;22296;50.824;5.644;2023-05-29T02:23:20;101238.19;;;21.78;47.55
36260;BME280;22296;50.824;5.644;2023-05-29T02:25:50;101244.59;;;21.78;47.35
36260;BME280;22296;50.824;5.644;2023-05-29T02:28:16;101240.06;;;21.74;47.74
36260;BME280;22296;50.824;5.644;2023-05-29T02:30:43;101238.09;;;21.74;47.74
36260;BME280;22296;50.824;5.644;2023-05-29T02:33:10;101241.22;;;21.73;47.38
36260;BME280;22296;50.824;5.644;2023-05-29T02:35:37;101245.25;;;21.72;47.48
36260;BME280;22296;50.824;5.644;2023-05-29T02:38:04;101228.38;;;21.72;47.44
36260;BME280;22296;50.824;5.644;2023-05-29T02:40:31;101237.16;;;21.70;47.49
36260;BME280;22296;50.824;5.644;2023-05-29T02:42:57;101247.56;;;21.70;47.46
36260;BME280;22296;50.824;5.644;2023-05-29T02:45:24;101253.09;;;21.66;47.52
36260;BME280;22296;50.824;5.644;2023-05-29T02:47:52;101251.44;;;21.65;47.35
36260;BME280;22296;50.824;5.644;2023-05-29T02:50:19;101253.44;;;21.65;47.68
36260;BME280;22296;50.824;5.644;2023-05-29T02:52:46;101257.06;;;21.65;47.33
36260;BME280;22296;50.824;5.644;2023-05-29T02:55:13;101268.28;;;21.65;47.47
36260;BME280;22296;50.824;5.644;2023-05-29T02:57:40;101268.28;;;21.65;47.71
36260;BME280;22296;50.824;5.644;2023-05-29T03:00:07;101261.03;;;21.64;47.48
36260;BME280;22296;50.824;5.644;2023-05-29T03:02:35;101256.59;;;21.63;47.71
36260;BME280;22296;50.824;5.644;2023-05-29T03:05:03;101260.25;;;21.64;47.79
36260;BME280;22296;50.824;5.644;2023-05-29T03:07:29;101258.94;;;21.61;47.58
36260;BME280;22296;50.824;5.644;2023-05-29T03:09:56;101269.00;;;21.62;47.75
36260;BME280;22296;50.824;5.644;2023-05-29T03:12:25;101260.13;;;21.60;47.98
36260;BME280;22296;50.824;5.644;2023-05-29T03:14:54;101251.25;;;21.58;47.59
36260;BME280;22296;50.824;5.644;2023-05-29T03:17:24;101258.47;;;21.59;47.88
36260;BME280;22296;50.824;5.644;2023-05-29T03:19:52;101264.09;;;21.59;47.92
36260;BME280;22296;50.824;5.644;2023-05-29T03:22:20;101256.88;;;21.58;48.09
36260;BME280;22296;50.824;5.644;2023-05-29T03:24:46;101266.44;;;21.57;48.05
36260;BME280;22296;50.824;5.644;2023-05-29T03:27:13;101262.00;;;21.56;47.77
36260;BME280;22296;50.824;5.644;2023-05-29T03:29:42;101261.16;;;21.55;47.81
36260;BME280;22296;50.824;5.644;2023-05-29T03:32:09;101259.19;;;21.56;47.93
36260;BME280;22296;50.824;5.644;2023-05-29T03:34:36;101265.88;;;21.51;48.05
36260;BME280;22296;50.824;5.644;2023-05-29T03:37:05;101263.06;;;21.51;48.24
36260;BME280;22296;50.824;5.644;2023-05-29T03:39:32;101273.47;;;21.51;47.84
36260;BME280;22296;50.824;5.644;2023-05-29T03:41:59;101272.31;;;21.52;48.03
36260;BME280;22296;50.824;5.644;2023-05-29T03:44:27;101267.75;;;21.47;48.27
36260;BME280;22296;50.824;5.644;2023-05-29T03:46:54;101269.72;;;21.47;48.46
36260;BME280;22296;50.824;5.644;2023-05-29T03:49:21;101280.50;;;21.45;48.30
36260;BME280;22296;50.824;5.644;2023-05-29T03:51:49;101268.44;;;21.44;48.46
36260;BME280;22296;50.824;5.644;2023-05-29T03:54:16;101267.19;;;21.42;48.40
36260;BME280;22296;50.824;5.644;2023-05-29T03:56:44;101269.53;;;21.40;48.24
36260;BME280;22296;50.824;5.644;2023-05-29T03:59:13;101277.94;;;21.40;48.11
36260;BME280;22296;50.824;5.644;2023-05-29T04:01:40;101272.22;;;21.36;48.22
36260;BME280;22296;50.824;5.644;2023-05-29T04:04:07;101283.56;;;21.40;47.70
36260;BME280;22296;50.824;5.644;2023-05-29T04:06:34;101283.09;;;21.38;47.43
36260;BME280;22296;50.824;5.644;2023-05-29T04:09:05;101291.41;;;21.34;47.20
36260;BME280;22296;50.824;5.644;2023-05-29T04:11:33;101292.94;;;21.32;47.18
36260;BME280;22296;50.824;5.644;2023-05-29T04:14:03;101296.88;;;21.31;47.15
36260;BME280;22296;50.824;5.644;2023-05-29T04:16:29;101288.03;;;21.29;47.56
36260;BME280;22296;50.824;5.644;2023-05-29T04:18:56;101293.25;;;21.30;46.89
36260;BME280;22296;50.824;5.644;2023-05-29T04:21:26;101300.06;;;21.29;47.22
36260;BME280;22296;50.824;5.644;2023-05-29T04:23:53;101308.81;;;21.28;47.04
36260;BME280;22296;50.824;5.644;2023-05-29T04:26:22;101300.41;;;21.28;46.91
36260;BME280;22296;50.824;5.644;2023-05-29T04:28:54;101313.97;;;21.26;47.14
36260;BME280;22296;50.824;5.644;2023-05-29T04:31:25;101311.88;;;21.23;46.59
36260;BME280;22296;50.824;5.644;2023-05-29T04:33:54;101314.31;;;21.24;46.66
36260;BME280;22296;50.824;5.644;2023-05-29T04:36:25;101325.19;;;21.26;46.63
36260;BME280;22296;50.824;5.644;2023-05-29T04:39:03;101317.59;;;21.26;47.06
36260;BME280;22296;50.824;5.644;2023-05-29T04:41:30;101324.69;;;21.24;46.52
36260;BME280;22296;50.824;5.644;2023-05-29T04:43:59;101323.09;;;21.23;47.43
36260;BME280;22296;50.824;5.644;2023-05-29T04:46:33;101335.94;;;21.24;47.04
36260;BME280;22296;50.824;5.644;2023-05-29T04:49:02;101333.38;;;21.19;46.52
36260;BME280;22296;50.824;5.644;2023-05-29T04:51:30;101334.31;;;21.23;46.81
36260;BME280;22296;50.824;5.644;2023-05-29T04:53:57;101329.41;;;21.20;47.11
36260;BME280;22296;50.824;5.644;2023-05-29T04:56:25;101325.44;;;21.21;46.54
36260;BME280;22296;50.824;5.644;2023-05-29T04:58:53;101335.00;;;21.20;46.37
36260;BME280;22296;50.824;5.644;2023-05-29T05:01:21;101331.03;;;21.21;46.70
36260;BME280;22296;50.824;5.644;2023-05-29T05:03:48;101332.53;;;21.18;46.54
36260;BME280;22296;50.824;5.644;2023-05-29T05:06:15;101329.28;;;21.16;46.43
36260;BME280;22296;50.824;5.644;2023-05-29T05:08:43;101331.75;;;21.18;46.66
36260;BME280;22296;50.824;5.644;2023-05-29T05:11:10;101339.78;;;21.19;47.00
36260;BME280;22296;50.824;5.644;2023-05-29T05:13:39;101331.75;;;21.18;46.88
36260;BME280;22296;50.824;5.644;2023-05-29T05:16:06;101340.50;;;21.16;47.09
36260;BME280;22296;50.824;5.644;2023-05-29T05:18:33;101350.19;;;21.19;46.59
36260;BME280;22296;50.824;5.644;2023-05-29T05:21:03;101342.97;;;21.18;47.01
36260;BME280;22296;50.824;5.644;2023-05-29T05:23:32;101346.94;;;21.17;46.76
36260;BME280;22296;50.824;5.644;2023-05-29T05:26:15;101349.38;;;21.18;46.85
36260;BME280;22296;50.824;5.644;2023-05-29T05:28:42;101347.88;;;21.21;46.77
36260;BME280;22296;50.824;5.644;2023-05-29T05:31:10;101353.81;;;21.19;46.58
36260;BME280;22296;50.824;5.644;2023-05-29T05:33:37;101360.72;;;21.22;46.86
36260;BME280;22296;50.824;5.644;2023-05-29T05:36:05;101360.97;;;21.17;46.78
36260;BME280;22296;50.824;5.644;2023-05-29T05:38:33;101366.19;;;21.18;46.47
36260;BME280;22296;50.824;5.644;2023-05-29T05:41:00;101360.50;;;21.15;46.36
36260;BME280;22296;50.824;5.644;2023-05-29T05:43:30;101370.53;;;21.16;46.87
36260;BME280;22296;50.824;5.644;2023-05-29T05:46:05;101372.19;;;21.17;46.64
36260;BME280;22296;50.824;5.644;2023-05-29T05:48:34;101366.09;;;21.15;46.08
36260;BME280;22296;50.824;5.644;2023-05-29T05:51:01;101362.81;;;21.13;46.29
36260;BME280;22296;50.824;5.644;2023-05-29T05:53:28;101370.06;;;21.14;46.61
36260;BME280;22296;50.824;5.644;2023-05-29T05:55:56;101377.09;;;21.32;47.13
36260;BME280;22296;50.824;5.644;2023-05-29T05:58:24;101377.78;;;21.41;46.76
36260;BME280;22296;50.824;5.644;2023-05-29T06:00:51;101383.19;;;21.46;46.63
36260;BME280;22296;50.824;5.644;2023-05-29T06:03:19;101380.47;;;21.49;45.89
36260;BME280;22296;50.824;5.644;2023-05-29T06:05:58;101383.41;;;21.53;45.77
36260;BME280;22296;50.824;5.644;2023-05-29T06:08:24;101374.75;;;21.58;45.60
36260;BME280;22296;50.824;5.644;2023-05-29T06:10:52;101376.50;;;21.63;45.66
36260;BME280;22296;50.824;5.644;2023-05-29T06:13:19;101368.53;;;21.65;45.58
36260;BME280;22296;50.824;5.644;2023-05-29T06:15:55;101374.03;;;21.61;45.39
36260;BME280;22296;50.824;5.644;2023-05-29T06:18:22;101398.13;;;21.62;44.94
36260;BME280;22296;50.824;5.644;2023-05-29T06:20:49;101394.16;;;21.63;44.47
36260;BME280;22296;50.824;5.644;2023-05-29T06:23:17;101394.38;;;21.70;43.98
36260;BME280;22296;50.824;5.644;2023-05-29T06:25:44;101396.97;;;21.75;44.32
36260;BME280;22296;50.824;5.644;2023-05-29T06:28:10;101396.97;;;21.75;43.85
36260;BME280;22296;50.824;5.644;2023-05-29T06:30:39;101403.28;;;21.72;44.09
36260;BME280;22296;50.824;5.644;2023-05-29T06:33:07;101399.28;;;21.73;43.94
36260;BME280;22296;50.824;5.644;2023-05-29T06:35:37;101400.22;;;21.77;43.42
36260;BME280;22296;50.824;5.644;2023-05-29T06:38:04;101403.16;;;21.81;43.73
36260;BME280;22296;50.824;5.644;2023-05-29T06:40:31;101401.38;;;21.76;43.77
36260;BME280;22296;50.824;5.644;2023-05-29T06:42:58;101392.13;;;21.76;43.57
36260;BME280;22296;50.824;5.644;2023-05-29T06:45:37;101395.78;;;21.76;43.33
36260;BME280;22296;50.824;5.644;2023-05-29T06:48:04;101384.91;;;21.75;43.30
36260;BME280;22296;50.824;5.644;2023-05-29T06:50:32;101394.63;;;21.77;43.43
36260;BME280;22296;50.824;5.644;2023-05-29T06:53:19;101394.16;;;21.75;43.58
36260;BME280;22296;50.824;5.644;2023-05-29T06:55:47;101392.63;;;21.78;43.53
36260;BME280;22296;50.824;5.644;2023-05-29T06:58:14;101400.09;;;21.86;43.69
36260;BME280;22296;50.824;5.644;2023-05-29T07:00:41;101405.25;;;21.84;43.63
36260;BME280;22296;50.824;5.644;2023-05-29T07:03:27;101406.41;;;21.83;43.63
36260;BME280;22296;50.824;5.644;2023-05-29T07:05:54;101404.44;;;21.83;43.65
36260;BME280;22296;50.824;5.644;2023-05-29T07:08:22;101399.28;;;21.85;43.40
36260;BME280;22296;50.824;5.644;2023-05-29T07:10:50;101402.56;;;21.87;43.66
36260;BME280;22296;50.824;5.644;2023-05-29T07:13:19;101420.69;;;21.90;43.83
36260;BME280;22296;50.824;5.644;2023-05-29T07:15:48;101411.13;;;21.91;43.75
36260;BME280;22296;50.824;5.644;2023-05-29T07:18:16;101409.13;;;21.91;43.68
36260;BME280;22296;50.824;5.644;2023-05-29T07:20:44;101409.13;;;21.91;43.82
36260;BME280;22296;50.824;5.644;2023-05-29T07:23:14;101412.66;;;21.88;43.50
36260;BME280;22296;50.824;5.644;2023-05-29T07:25:41;101408.19;;;21.87;43.56
36260;BME280;22296;50.824;5.644;2023-05-29T07:28:09;101404.69;;;21.90;43.66
36260;BME280;22296;50.824;5.644;2023-05-29T07:30:48;101409.25;;;21.95;43.66
36260;BME280;22296;50.824;5.644;2023-05-29T07:33:15;101401.66;;;21.95;43.46
36260;BME280;22296;50.824;5.644;2023-05-29T07:35:43;101391.19;;;21.96;43.49
36260;BME280;22296;50.824;5.644;2023-05-29T07:38:09;101394.50;;;21.98;43.53
36260;BME280;22296;50.824;5.644;2023-05-29T07:40:37;101393.69;;;21.97;43.76
36260;BME280;22296;50.824;5.644;2023-05-29T07:43:43;101391.31;;;21.99;43.70
36260;BME280;22296;50.824;5.644;2023-05-29T07:46:11;101394.13;;;21.99;43.70
36260;BME280;22296;50.824;5.644;2023-05-29T07:48:40;101395.28;;;21.98;43.88
36260;BME280;22296;50.824;5.644;2023-05-29T07:51:07;101386.53;;;22.00;43.78
36260;BME280;22296;50.824;5.644;2023-05-29T07:53:39;101398.69;;;22.04;44.06
36260;BME280;22296;50.824;5.644;2023-05-29T07:56:06;101397.97;;;22.07;44.24
36260;BME280;22296;50.824;5.644;2023-05-29T07:58:33;101397.16;;;22.06;43.80
36260;BME280;22296;50.824;5.644;2023-05-29T08:01:00;101392.00;;;22.08;43.75
36260;BME280;22296;50.824;5.644;2023-05-29T08:03:28;101403.69;;;22.10;44.08
36260;BME280;22296;50.824;5.644;2023-05-29T08:06:33;101396.78;;;22.08;44.08
36260;BME280;22296;50.824;5.644;2023-05-29T08:09:01;101400.88;;;22.10;43.72
36260;BME280;22296;50.824;5.644;2023-05-29T08:11:28;101410.97;;;22.11;43.81
36260;BME280;22296;50.824;5.644;2023-05-29T08:13:55;101407.47;;;22.02;43.75
36260;BME280;22296;50.824;5.644;2023-05-29T08:16:23;101403.72;;;21.98;44.00
36260;BME280;22296;50.824;5.644;2023-05-29T08:18:50;101407.47;;;22.02;43.97
36260;BME280;22296;50.824;5.644;2023-05-29T08:21:17;101416.34;;;22.04;43.86
36260;BME280;22296;50.824;5.644;2023-05-29T08:23:44;101418.81;;;22.06;43.88
36260;BME280;22296;50.824;5.644;2023-05-29T08:26:10;101414.03;;;22.06;43.73
36260;BME280;22296;50.824;5.644;2023-05-29T08:28:38;101416.47;;;22.08;43.88
36260;BME280;22296;50.824;5.644;2023-05-29T08:31:08;101417.28;;;22.08;43.70
36260;BME280;22296;50.824;5.644;2023-05-29T08:33:35;101410.50;;;22.09;43.71
36260;BME280;22296;50.824;5.644;2023-05-29T08:36:03;101407.69;;;22.09;43.85
36260;BME280;22296;50.824;5.644;2023-05-29T08:38:30;101412.59;;;22.12;43.83
36260;BME280;22296;50.824;5.644;2023-05-29T08:40:57;101407.78;;;22.13;43.50
36260;BME280;22296;50.824;5.644;2023-05-29T08:43:25;101416.31;;;22.17;43.79
36260;BME280;22296;50.824;5.644;2023-05-29T08:46:02;101413.31;;;22.09;44.17
36260;BME280;22296;50.824;5.644;2023-05-29T08:48:30;101418.22;;;22.12;43.68
36260;BME280;22296;50.824;5.644;2023-05-29T08:50:58;101421.50;;;22.14;44.04
36260;BME280;22296;50.824;5.644;2023-05-29T08:53:25;101417.50;;;22.15;44.25
36260;BME280;22296;50.824;5.644;2023-05-29T08:55:52;101424.75;;;22.17;44.11
36260;BME280;22296;50.824;5.644;2023-05-29T08:58:20;101410.25;;;22.14;43.92
36260;BME280;22296;50.824;5.644;2023-05-29T09:00:50;101423.84;;;22.12;44.14
36260;BME280;22296;50.824;5.644;2023-05-29T09:03:18;101416.84;;;22.06;43.97
36260;BME280;22296;50.824;5.644;2023-05-29T09:05:47;101414.72;;;22.03;43.96
36260;BME280;22296;50.824;5.644;2023-05-29T09:08:16;101415.44;;;22.00;43.90
36260;BME280;22296;50.824;5.644;2023-05-29T09:10:44;101426.19;;;21.98;44.01
36260;BME280;22296;50.824;5.644;2023-05-29T09:13:12;101415.44;;;22.00;43.85
36260;BME280;22296;50.824;5.644;2023-05-29T09:15:41;101430.19;;;22.09;44.11
36260;BME280;22296;50.824;5.644;2023-05-29T09:18:10;101427.09;;;22.14;44.06
36260;BME280;22296;50.824;5.644;2023-05-29T09:20:38;101435.16;;;22.16;43.91
36260;BME280;22296;50.824;5.644;2023-05-29T09:23:07;101433.63;;;22.19;43.66
36260;BME280;22296;50.824;5.644;2023-05-29T09:25:39;101432.03;;;22.18;43.60
36260;BME280;22296;50.824;5.644;2023-05-29T09:28:08;101436.81;;;22.17;43.50
36260;BME280;22296;50.824;5.644;2023-05-29T09:30:39;101439.97;;;22.15;43.62
36260;BME280;22296;50.824;5.644;2023-05-29T09:33:08;101444.41;;;22.17;43.50
36260;BME280;22296;50.824;5.644;2023-05-29T09:38:04;101432.72;;;22.14;43.53
36260;BME280;22296;50.824;5.644;2023-05-29T09:40:33;101430.38;;;22.17;43.55
36260;BME280;22296;50.824;5.644;2023-05-29T09:43:04;101440.06;;;22.19;43.25
36260;BME280;22296;50.824;5.644;2023-05-29T09:45:31;101435.28;;;22.20;43.49
36260;BME280;22296;50.824;5.644;2023-05-29T09:47:58;101436.56;;;22.22;43.41
36260;BME280;22296;50.824;5.644;2023-05-29T09:50:26;101435.03;;;22.25;43.41
36260;BME280;22296;50.824;5.644;2023-05-29T09:52:53;101435.50;;;22.27;43.27
36260;BME280;22296;50.824;5.644;2023-05-29T09:55:20;101432.34;;;22.28;43.53
36260;BME280;22296;50.824;5.644;2023-05-29T09:57:47;101437.13;;;22.28;43.04
36260;BME280;22296;50.824;5.644;2023-05-29T10:00:17;101442.75;;;22.28;43.32
36260;BME280;22296;50.824;5.644;2023-05-29T10:02:44;101445.09;;;22.26;43.39
36260;BME280;22296;50.824;5.644;2023-05-29T10:05:11;101437.84;;;22.25;43.59
36260;BME280;22296;50.824;5.644;2023-05-29T10:07:39;101437.84;;;22.25;43.33
36260;BME280;22296;50.824;5.644;2023-05-29T10:10:11;101442.28;;;22.26;43.48
36260;BME280;22296;50.824;5.644;2023-05-29T10:12:38;101441.13;;;22.27;43.50
36260;BME280;22296;50.824;5.644;2023-05-29T10:15:11;101446.75;;;22.27;43.29
36260;BME280;22296;50.824;5.644;2023-05-29T10:18:04;101439.94;;;22.28;43.61
36260;BME280;22296;50.824;5.644;2023-05-29T10:20:36;101437.84;;;22.25;43.61
36260;BME280;22296;50.824;5.644;2023-05-29T10:23:04;101427.31;;;22.22;43.59
36260;BME280;22296;50.824;5.644;2023-05-29T10:25:32;101451.44;;;22.23;43.63
36260;BME280;22296;50.824;5.644;2023-05-29T10:28:00;101437.75;;;22.21;43.46
36260;BME280;22296;50.824;5.644;2023-05-29T10:30:42;101434.56;;;22.23;43.38
36260;BME280;22296;50.824;5.644;2023-05-29T10:36:10;101449.34;;;22.07;43.36
36260;BME280;22296;50.824;5.644;2023-05-29T10:38:46;101440.00;;;22.03;43.15
36260;BME280;22296;50.824;5.644;2023-05-29T10:49:19;101435.56;;;22.02;43.18
36260;BME280;22296;50.824;5.644;2023-05-29T10:51:47;101436.25;;;21.99;42.98
36260;BME280;22296;50.824;5.644;2023-05-29T10:54:24;101443.41;;;21.97;43.01
36260;BME280;22296;50.824;5.644;2023-05-29T10:56:55;101428.53;;;21.96;42.78
36260;BME280;22296;50.824;5.644;2023-05-29T10:59:23;101427.84;;;21.99;43.22
36260;BME280;22296;50.824;5.644;2023-05-29T11:01:54;101432.97;;;22.09;43.23
36260;BME280;22296;50.824;5.644;2023-05-29T11:06:48;101433.63;;;22.19;42.87
36260;BME280;22296;50.824;5.644;2023-05-29T11:09:35;101435.75;;;22.22;43.27
36260;BME280;22296;50.824;5.644;2023-05-29T11:14:56;101432.22;;;22.25;43.05
36260;BME280;22296;50.824;5.644;2023-05-29T11:20:15;101426.13;;;22.35;42.80
36260;BME280;22296;50.824;5.644;2023-05-29T11:25:27;101429.38;;;22.37;42.60
36260;BME280;22296;50.824;5.644;2023-05-29T11:27:54;101427.03;;;22.39;42.50
36260;BME280;22296;50.824;5.644;2023-05-29T11:30:21;101423.03;;;22.40;42.40
36260;BME280;22296;50.824;5.644;2023-05-29T11:32:49;101415.06;;;22.42;42.39
36260;BME280;22296;50.824;5.644;2023-05-29T11:35:21;101424.69;;;22.41;42.74
36260;BME280;22296;50.824;5.644;2023-05-29T11:37:49;101413.63;;;22.48;42.56
36260;BME280;22296;50.824;5.644;2023-05-29T11:40:17;101404.75;;;22.46;42.47
36260;BME280;22296;50.824;5.644;2023-05-29T11:42:46;101407.91;;;22.44;42.25
36260;BME280;22296;50.824;5.644;2023-05-29T11:45:19;101404.75;;;22.46;42.07
36260;BME280;22296;50.824;5.644;2023-05-29T11:48:00;101410.13;;;22.51;42.01
36260;BME280;22296;50.824;5.644;2023-05-29T11:50:29;101405.69;;;22.50;42.07
36260;BME280;22296;50.824;5.644;2023-05-29T11:52:57;101405.69;;;22.50;41.90
36260;BME280;22296;50.824;5.644;2023-05-29T11:55:25;101398.16;;;22.54;42.25
36260;BME280;22296;50.824;5.644;2023-05-29T11:58:00;101400.97;;;22.54;42.25
36260;BME280;22296;50.824;5.644;2023-05-29T12:00:33;101399.13;;;22.46;41.97
36260;BME280;22296;50.824;5.644;2023-05-29T12:03:00;101391.88;;;22.45;42.11
36260;BME280;22296;50.824;5.644;2023-05-29T12:05:32;101382.97;;;22.43;41.95
36260;BME280;22296;50.824;5.644;2023-05-29T12:07:59;101397.88;;;22.43;42.22
36260;BME280;22296;50.824;5.644;2023-05-29T12:10:31;101390.97;;;22.41;42.22
36260;BME280;22296;50.824;5.644;2023-05-29T12:12:59;101390.97;;;22.41;42.15
36260;BME280;22296;50.824;5.644;2023-05-29T12:15:27;101398.13;;;22.38;42.21
36260;BME280;22296;50.824;5.644;2023-05-29T12:17:55;101391.69;;;22.38;42.09
36260;BME280;22296;50.824;5.644;2023-05-29T12:20:23;101381.59;;;22.37;42.02
36260;BME280;22296;50.824;5.644;2023-05-29T12:22:59;101394.84;;;22.36;41.71
36260;BME280;22296;50.824;5.644;2023-05-29T12:25:27;101392.84;;;22.37;41.95
36260;BME280;22296;50.824;5.644;2023-05-29T12:27:57;101392.38;;;22.35;41.49
36260;BME280;22296;50.824;5.644;2023-05-29T12:30:25;101397.06;;;22.31;41.92
36260;BME280;22296;50.824;5.644;2023-05-29T12:32:55;101400.25;;;22.29;41.87
36260;BME280;22296;50.824;5.644;2023-05-29T12:35:27;101395.47;;;22.30;41.77
36260;BME280;22296;50.824;5.644;2023-05-29T12:40:26;101400.34;;;22.33;42.13
36260;BME280;22296;50.824;5.644;2023-05-29T12:43:04;101394.84;;;22.36;41.98
36260;BME280;22296;50.824;5.644;2023-05-29T12:45:32;101396.47;;;22.37;42.24
36260;BME280;22296;50.824;5.644;2023-05-29T12:48:00;101397.28;;;22.38;42.13
36260;BME280;22296;50.824;5.644;2023-05-29T12:50:35;101395.66;;;22.37;41.75
36260;BME280;22296;50.824;5.644;2023-05-29T12:53:07;101401.28;;;22.37;41.95
36260;BME280;22296;50.824;5.644;2023-05-29T12:55:36;101391.56;;;22.34;41.86
36260;BME280;22296;50.824;5.644;2023-05-29T12:58:05;101403.63;;;22.35;41.61
36260;BME280;22296;50.824;5.644;2023-05-29T13:00:33;101386.28;;;22.33;42.05
36260;BME280;22296;50.824;5.644;2023-05-29T13:03:01;101397.28;;;22.38;41.79
36260;BME280;22296;50.824;5.644;2023-05-29T13:05:28;101398.91;;;22.39;41.92
36260;BME280;22296;50.824;5.644;2023-05-29T13:07:55;101394.50;;;22.38;41.81
36260;BME280;22296;50.824;5.644;2023-05-29T13:10:24;101387.66;;;22.39;41.89
36260;BME280;22296;50.824;5.644;2023-05-29T13:12:53;101386.97;;;22.42;41.87
36260;BME280;22296;50.824;5.644;2023-05-29T13:15:22;101401.00;;;22.42;41.85
36260;BME280;22296;50.824;5.644;2023-05-29T13:17:49;101398.31;;;22.45;41.75
36260;BME280;22296;50.824;5.644;2023-05-29T13:20:17;101399.13;;;22.46;41.73
36260;BME280;22296;50.824;5.644;2023-05-29T13:22:47;101399.13;;;22.46;41.59
36260;BME280;22296;50.824;5.644;2023-05-29T13:25:16;101406.75;;;22.45;41.86
36260;BME280;22296;50.824;5.644;2023-05-29T13:27:45;101401.50;;;22.44;41.74
36260;BME280;22296;50.824;5.644;2023-05-29T13:30:13;101397.88;;;22.43;41.68
36260;BME280;22296;50.824;5.644;2023-05-29T13:32:41;101408.28;;;22.43;41.76
36260;BME280;22296;50.824;5.644;2023-05-29T13:35:08;101400.78;;;22.47;41.74
36260;BME280;22296;50.824;5.644;2023-05-29T13:37:36;101393.41;;;22.42;41.82
36260;BME280;22296;50.824;5.644;2023-05-29T13:40:04;101387.19;;;22.49;42.52